Time;durP1;ratioP1;P1;durP2;ratioP2;P2;SDS_P1;SDS_P2;PMS_P1;PMS_P2;Temp;Humidity;BMP_temperature;BMP_pressure;BME280_temperature;BME280_humidity;BME280_pressure;Samples;Min_cycle;Max_cycle;Signal;HPM_P1;HPM_P2
2023/04/18 00:00:22;;;;;;;6.18;3.03;;;10.70;99.90;;;;;;4967128;28;20070;-63
2023/04/18 00:02:52;;;;;;;5.28;2.85;;;10.80;99.90;;;;;;4985013;28;20035;-64
2023/04/18 00:05:19;;;;;;;4.63;2.60;;;10.80;99.90;;;;;;4970413;28;20479;-63
2023/04/18 00:07:45;;;;;;;5.22;3.13;;;10.80;99.90;;;;;;4971282;28;20031;-63
2023/04/18 00:10:11;;;;;;;9.77;3.53;;;10.80;99.90;;;;;;4967758;28;20031;-63
2023/04/18 00:12:37;;;;;;;8.30;3.30;;;10.80;99.90;;;;;;4951438;28;20027;-64
2023/04/18 00:15:07;;;;;;;5.20;3.28;;;10.80;99.90;;;;;;4970231;28;20143;-63
2023/04/18 00:17:34;;;;;;;5.88;3.35;;;10.60;99.90;;;;;;4966886;28;20117;-63
2023/04/18 00:20:03;;;;;;;8.23;3.42;;;10.70;99.90;;;;;;4970518;28;20039;-64
2023/04/18 00:22:29;;;;;;;4.20;2.85;;;10.60;99.90;;;;;;4971304;28;20038;-63
2023/04/18 00:24:55;;;;;;;8.43;3.83;;;10.60;99.90;;;;;;4971630;28;20031;-64
2023/04/18 00:27:20;;;;;;;7.05;3.58;;;10.60;99.90;;;;;;4966144;28;20103;-63
2023/04/18 00:29:47;;;;;;;6.03;3.33;;;10.60;99.90;;;;;;4972077;28;20058;-64
2023/04/18 00:32:13;;;;;;;7.53;2.90;;;10.50;99.90;;;;;;4948205;28;20526;-63
2023/04/18 00:34:39;;;;;;;6.68;3.00;;;10.50;99.90;;;;;;4970866;28;20054;-64
2023/04/18 00:37:06;;;;;;;7.68;3.22;;;10.50;99.90;;;;;;4965242;28;20026;-64
2023/04/18 00:39:34;;;;;;;3.65;2.40;;;10.30;99.90;;;;;;4971698;28;20735;-64
2023/04/18 00:42:03;;;;;;;6.60;3.13;;;10.20;99.90;;;;;;4970412;28;20039;-64
2023/04/18 00:44:31;;;;;;;6.93;4.10;;;10.30;99.90;;;;;;4970676;28;20061;-64
2023/04/18 00:46:57;;;;;;;5.90;3.15;;;10.20;99.90;;;;;;4969635;28;20027;-64
2023/04/18 00:49:24;;;;;;;8.20;3.70;;;10.20;99.90;;;;;;4971865;28;20038;-64
2023/04/18 00:51:50;;;;;;;8.75;3.55;;;10.10;99.90;;;;;;4969766;28;20034;-64
2023/04/18 00:54:17;;;;;;;8.63;3.33;;;10.20;99.90;;;;;;4972221;28;20030;-64
2023/04/18 00:56:44;;;;;;;6.35;3.47;;;10.20;99.90;;;;;;4963290;28;20566;-64
2023/04/18 00:59:10;;;;;;;5.25;2.97;;;10.10;99.90;;;;;;4970515;28;20075;-64
2023/04/18 01:01:38;;;;;;;6.75;3.42;;;10.00;99.90;;;;;;4963306;28;20050;-64
2023/04/18 01:04:05;;;;;;;4.65;3.17;;;9.90;99.90;;;;;;4970117;28;20034;-64
2023/04/18 01:06:31;;;;;;;6.43;3.45;;;9.90;99.90;;;;;;4961997;28;20106;-64
2023/04/18 01:08:57;;;;;;;8.07;3.63;;;9.90;99.90;;;;;;4973635;28;20031;-64
2023/04/18 01:11:23;;;;;;;7.18;3.20;;;10.00;99.90;;;;;;4974013;28;20554;-64
2023/04/18 01:14:05;;;;;;;5.80;3.03;;;9.90;99.90;;;;;;4938519;28;20042;-64
2023/04/18 01:16:35;;;;;;;6.15;2.75;;;10.00;99.90;;;;;;4969124;28;20089;-64
2023/04/18 01:19:02;;;;;;;6.03;3.15;;;9.90;99.90;;;;;;4971009;28;20038;-64
2023/04/18 01:21:30;;;;;;;4.63;2.95;;;9.80;99.90;;;;;;4962618;28;20042;-64
2023/04/18 01:24:16;;;;;;;5.60;3.28;;;9.70;99.90;;;;;;4970225;28;20023;-64
2023/04/18 01:26:44;;;;;;;8.35;3.40;;;9.60;99.90;;;;;;4964501;28;20027;-64
2023/04/18 01:29:10;;;;;;;5.10;3.40;;;9.50;99.90;;;;;;4970328;28;20031;-64
2023/04/18 01:31:37;;;;;;;6.28;3.15;;;9.40;99.90;;;;;;4964449;28;20074;-64
2023/04/18 01:34:04;;;;;;;6.68;2.67;;;9.50;99.90;;;;;;4971348;28;20030;-64
2023/04/18 01:36:31;;;;;;;6.40;3.78;;;9.50;99.90;;;;;;4968986;28;20043;-64
2023/04/18 01:38:58;;;;;;;6.78;3.55;;;9.40;99.90;;;;;;4971335;28;20027;-64
2023/04/18 01:41:24;;;;;;;7.30;3.72;;;9.30;99.90;;;;;;4968836;28;20081;-64
2023/04/18 01:43:50;;;;;;;6.82;2.92;;;9.20;99.90;;;;;;4971370;28;20061;-64
2023/04/18 01:46:15;;;;;;;6.53;3.75;;;9.20;99.90;;;;;;4964369;28;20034;-64
2023/04/18 01:48:42;;;;;;;11.65;3.38;;;9.20;99.90;;;;;;4971483;28;20031;-64
2023/04/18 01:51:07;;;;;;;6.78;3.78;;;9.30;99.90;;;;;;4964172;28;20515;-64
2023/04/18 01:53:33;;;;;;;6.28;3.47;;;9.30;99.90;;;;;;4970045;28;20073;-65
2023/04/18 01:55:59;;;;;;;8.15;3.75;;;9.30;99.90;;;;;;4964308;28;20130;-64
2023/04/18 01:58:25;;;;;;;5.97;4.10;;;9.30;99.90;;;;;;4971312;28;20022;-65
2023/04/18 02:00:57;;;;;;;6.10;3.53;;;9.30;99.90;;;;;;4968370;28;20070;-66
2023/04/18 02:03:23;;;;;;;8.95;4.35;;;9.20;99.90;;;;;;4970043;28;20031;-65
2023/04/18 02:05:50;;;;;;;11.68;3.35;;;9.20;99.90;;;;;;4947036;28;20067;-64
2023/04/18 02:08:16;;;;;;;6.80;3.10;;;9.10;99.90;;;;;;4971028;28;20022;-65
2023/04/18 02:10:41;;;;;;;6.00;3.13;;;9.00;99.90;;;;;;4964133;28;20391;-65
2023/04/18 02:13:07;;;;;;;9.13;3.30;;;8.90;99.90;;;;;;4969925;28;20111;-64
2023/04/18 02:15:33;;;;;;;8.35;3.97;;;8.90;99.90;;;;;;4965090;28;20031;-64
2023/04/18 02:17:59;;;;;;;7.93;4.35;;;8.90;99.90;;;;;;4970075;28;20489;-65
2023/04/18 02:20:30;;;;;;;8.32;3.67;;;9.00;99.90;;;;;;4965674;28;20044;-64
2023/04/18 02:22:57;;;;;;;9.55;4.13;;;9.00;99.90;;;;;;4968362;28;20483;-65
2023/04/18 02:25:25;;;;;;;6.25;3.67;;;9.00;99.90;;;;;;4968873;28;20039;-64
2023/04/18 02:27:52;;;;;;;7.47;3.20;;;9.10;99.90;;;;;;4969120;28;20387;-64
2023/04/18 02:30:18;;;;;;;6.80;3.85;;;9.10;99.90;;;;;;4968157;28;20035;-64
2023/04/18 02:32:44;;;;;;;6.85;3.42;;;9.10;99.90;;;;;;4971147;28;20038;-64
2023/04/18 02:35:11;;;;;;;9.18;3.25;;;9.00;99.90;;;;;;4971843;28;20467;-63
2023/04/18 02:37:37;;;;;;;7.82;3.63;;;9.00;99.90;;;;;;4970483;28;20026;-64
2023/04/18 02:40:04;;;;;;;11.30;3.25;;;9.00;99.90;;;;;;4972155;28;20049;-64
2023/04/18 02:42:30;;;;;;;7.03;3.05;;;9.10;99.90;;;;;;4984154;28;20041;-64
2023/04/18 02:44:56;;;;;;;7.13;4.07;;;9.00;99.90;;;;;;4971542;28;20046;-64
2023/04/18 02:47:22;;;;;;;9.13;3.47;;;9.00;99.90;;;;;;4968171;28;20046;-65
2023/04/18 02:49:48;;;;;;;8.18;4.03;;;9.00;99.90;;;;;;4972292;28;20200;-65
2023/04/18 02:52:14;;;;;;;7.70;2.95;;;9.10;99.90;;;;;;4967378;28;20380;-65
2023/04/18 02:54:39;;;;;;;5.30;3.30;;;9.00;99.90;;;;;;4974014;28;20038;-65
2023/04/18 02:57:05;;;;;;;6.03;3.58;;;9.00;99.90;;;;;;4965631;28;20034;-65
2023/04/18 02:59:31;;;;;;;5.30;3.03;;;8.90;99.90;;;;;;4973760;28;20402;-65
2023/04/18 03:01:57;;;;;;;4.90;3.22;;;9.00;99.90;;;;;;4965626;28;20038;-65
2023/04/18 03:04:23;;;;;;;10.82;3.97;;;9.00;99.90;;;;;;4975879;28;20043;-65
2023/04/18 03:06:49;;;;;;;9.52;3.40;;;9.10;99.90;;;;;;4969209;28;20116;-65
2023/04/18 03:09:15;;;;;;;7.90;3.70;;;9.10;99.90;;;;;;4973353;28;20031;-64
2023/04/18 03:11:41;;;;;;;5.95;3.03;;;9.10;99.90;;;;;;4968684;28;20030;-64
2023/04/18 03:14:07;;;;;;;9.27;3.80;;;9.20;99.90;;;;;;4973525;28;20455;-64
2023/04/18 03:16:34;;;;;;;8.73;3.65;;;9.20;99.90;;;;;;4976795;23;20379;-68
2023/04/18 03:19:00;;;;;;;9.32;3.47;;;9.10;99.90;;;;;;4973052;28;20098;-68
2023/04/18 03:21:26;;;;;;;6.40;3.15;;;9.10;99.90;;;;;;4967953;28;20065;-68
2023/04/18 03:23:52;;;;;;;6.85;3.28;;;9.10;99.90;;;;;;4973519;28;20106;-68
2023/04/18 03:26:18;;;;;;;7.07;3.42;;;9.00;99.90;;;;;;4966671;28;20453;-68
2023/04/18 03:28:44;;;;;;;7.85;3.22;;;9.00;99.90;;;;;;4973491;28;20522;-68
2023/04/18 03:31:09;;;;;;;5.55;3.33;;;8.90;99.90;;;;;;4966797;28;20118;-69
2023/04/18 03:33:35;;;;;;;9.10;3.80;;;8.90;99.90;;;;;;4973215;28;20541;-67
2023/04/18 03:36:01;;;;;;;8.18;3.25;;;8.90;99.90;;;;;;4967818;28;20043;-68
2023/04/18 03:38:27;;;;;;;7.60;4.38;;;8.90;99.90;;;;;;4980191;28;20065;-67
2023/04/18 03:40:53;;;;;;;8.02;3.50;;;9.10;99.90;;;;;;4967088;28;20067;-67
2023/04/18 03:43:22;;;;;;;8.15;3.88;;;9.20;99.90;;;;;;4973029;28;20041;-68
2023/04/18 03:45:48;;;;;;;8.55;3.35;;;9.00;99.90;;;;;;4967986;28;20033;-68
2023/04/18 03:48:14;;;;;;;11.80;4.35;;;9.10;99.90;;;;;;4971783;28;20058;-67
2023/04/18 03:50:40;;;;;;;5.55;2.88;;;9.20;99.90;;;;;;4966445;28;20109;-67
2023/04/18 03:53:06;;;;;;;6.47;3.05;;;9.10;99.90;;;;;;4981642;28;20085;-68
2023/04/18 03:55:32;;;;;;;9.98;4.18;;;9.00;99.90;;;;;;4943451;28;20047;-67
2023/04/18 03:57:58;;;;;;;6.35;3.70;;;9.00;99.90;;;;;;4971652;28;20035;-67
2023/04/18 04:00:25;;;;;;;4.68;2.97;;;8.90;99.90;;;;;;4964503;28;20554;-67
2023/04/18 04:02:50;;;;;;;7.20;3.88;;;8.80;99.90;;;;;;4970867;28;20026;-67
2023/04/18 04:05:16;;;;;;;8.48;3.70;;;8.60;99.90;;;;;;4971632;28;20101;-67
2023/04/18 04:07:42;;;;;;;8.90;3.70;;;8.50;99.90;;;;;;4970389;28;20018;-67
2023/04/18 04:10:08;;;;;;;7.45;3.78;;;8.50;99.90;;;;;;4970467;28;20376;-67
2023/04/18 04:12:34;;;;;;;8.70;3.90;;;8.50;99.90;;;;;;4972934;28;20039;-67
2023/04/18 04:15:00;;;;;;;9.18;4.68;;;8.50;99.90;;;;;;4972100;28;20031;-68
2023/04/18 04:17:26;;;;;;;9.55;4.10;;;8.50;99.90;;;;;;4968963;28;20407;-67
2023/04/18 04:19:52;;;;;;;10.27;3.85;;;8.40;99.90;;;;;;4972008;28;20037;-67
2023/04/18 04:22:18;;;;;;;9.13;4.30;;;8.30;99.90;;;;;;4966542;28;20598;-68
2023/04/18 04:24:45;;;;;;;8.35;4.00;;;8.40;99.90;;;;;;4968839;28;20027;-68
2023/04/18 04:27:12;;;;;;;7.30;3.67;;;8.40;99.90;;;;;;4969222;28;20047;-69
2023/04/18 04:29:38;;;;;;;9.98;4.30;;;8.40;99.90;;;;;;4970867;28;20026;-67
2023/04/18 04:32:05;;;;;;;8.93;4.28;;;8.30;99.90;;;;;;4970443;28;20027;-67
2023/04/18 04:34:33;;;;;;;12.63;4.60;;;8.30;99.90;;;;;;4971846;28;20126;-66
2023/04/18 04:37:00;;;;;;;8.73;3.95;;;8.30;99.90;;;;;;4971919;28;20540;-67
2023/04/18 04:39:25;;;;;;;11.75;4.97;;;8.30;99.90;;;;;;4967241;28;20037;-67
2023/04/18 04:41:52;;;;;;;10.27;4.88;;;8.20;99.90;;;;;;4944851;28;20031;-68
2023/04/18 04:44:18;;;;;;;9.50;5.07;;;8.20;99.90;;;;;;4972272;28;20058;-68
2023/04/18 04:46:44;;;;;;;10.80;4.00;;;8.20;99.90;;;;;;4965093;28;20035;-68
2023/04/18 04:49:13;;;;;;;9.63;4.32;;;8.20;99.90;;;;;;4972275;28;20023;-66
2023/04/18 04:51:39;;;;;;;9.00;4.25;;;8.20;99.90;;;;;;4966890;28;20093;-67
2023/04/18 04:54:05;;;;;;;7.25;3.70;;;8.30;99.90;;;;;;4972529;28;20418;-68
2023/04/18 04:56:31;;;;;;;12.10;4.78;;;8.20;99.90;;;;;;4966407;28;20042;-68
2023/04/18 04:58:57;;;;;;;7.28;4.70;;;8.20;99.90;;;;;;4970384;28;20435;-68
2023/04/18 05:01:23;;;;;;;10.80;5.10;;;8.20;99.90;;;;;;4966411;28;20038;-67
2023/04/18 05:03:50;;;;;;;13.20;4.72;;;8.30;99.90;;;;;;4971710;28;20038;-67
2023/04/18 05:06:19;;;;;;;9.93;4.82;;;8.30;99.90;;;;;;4966131;28;20026;-68
2023/04/18 05:08:49;;;;;;;11.70;4.90;;;8.30;99.90;;;;;;4966773;28;20059;-67
2023/04/18 05:11:16;;;;;;;8.10;3.80;;;8.40;99.90;;;;;;4959191;28;20109;-70
2023/04/18 05:13:42;;;;;;;8.52;3.90;;;8.50;99.90;;;;;;4959575;28;20479;-64
2023/04/18 05:16:08;;;;;;;9.13;3.80;;;8.50;99.90;;;;;;4971016;28;20109;-66
2023/04/18 05:18:37;;;;;;;10.95;4.43;;;8.50;99.90;;;;;;4968546;28;20030;-67
2023/04/18 05:21:04;;;;;;;8.85;4.32;;;8.50;99.90;;;;;;4970957;28;20023;-66
2023/04/18 05:23:31;;;;;;;9.48;4.85;;;8.60;99.90;;;;;;4962099;28;20033;-66
2023/04/18 05:25:57;;;;;;;9.35;5.00;;;8.60;99.90;;;;;;4954111;28;20094;-66
2023/04/18 05:28:25;;;;;;;7.82;4.47;;;8.60;99.90;;;;;;4968544;28;20091;-66
2023/04/18 05:30:51;;;;;;;11.20;4.35;;;8.50;99.90;;;;;;4969943;28;20030;-66
2023/04/18 05:33:17;;;;;;;12.60;4.35;;;8.50;99.90;;;;;;4968201;28;20035;-70
2023/04/18 05:35:43;;;;;;;9.48;4.25;;;8.50;99.90;;;;;;4969756;28;20073;-68
2023/04/18 05:38:08;;;;;;;8.70;4.63;;;8.60;99.90;;;;;;4966618;28;20110;-69
2023/04/18 05:40:34;;;;;;;17.65;4.50;;;8.60;99.90;;;;;;4970757;28;20039;-70
2023/04/18 05:43:00;;;;;;;11.32;4.75;;;8.70;99.90;;;;;;4968096;28;20086;-69
2023/04/18 05:45:25;;;;;;;7.32;3.38;;;8.60;99.90;;;;;;4971037;28;20034;-70
2023/04/18 05:47:52;;;;;;;10.70;4.15;;;8.70;99.90;;;;;;4968105;28;20039;-71
2023/04/18 05:50:18;;;;;;;7.38;4.10;;;8.80;99.90;;;;;;4970757;28;20029;-69
2023/04/18 05:52:44;;;;;;;14.73;5.35;;;8.80;99.90;;;;;;4968112;28;20031;-69
2023/04/18 05:55:10;;;;;;;9.80;3.65;;;8.80;99.90;;;;;;4971095;28;20023;-69
2023/04/18 05:57:35;;;;;;;7.78;3.75;;;8.80;99.90;;;;;;4968902;28;20043;-69
2023/04/18 06:00:04;;;;;;;8.25;4.63;;;8.90;99.90;;;;;;4983539;28;20054;-68
2023/04/18 06:02:30;;;;;;;11.27;4.95;;;8.90;99.90;;;;;;4975515;28;20539;-69
2023/04/18 06:04:56;;;;;;;9.55;4.32;;;8.90;99.90;;;;;;4967931;28;20126;-69
2023/04/18 06:07:24;;;;;;;9.23;4.25;;;8.90;99.90;;;;;;4967984;28;20475;-69
2023/04/18 06:09:50;;;;;;;11.15;4.97;;;9.00;99.90;;;;;;4970975;28;20031;-69
2023/04/18 06:12:15;;;;;;;7.93;3.50;;;8.90;99.90;;;;;;4973439;28;20154;-69
2023/04/18 06:14:41;;;;;;;10.27;4.47;;;8.80;99.90;;;;;;4971820;28;20035;-69
2023/04/18 06:17:08;;;;;;;10.02;4.47;;;8.80;99.90;;;;;;4974592;28;20067;-69
2023/04/18 06:19:34;;;;;;;10.63;4.03;;;8.70;99.90;;;;;;4971185;28;20395;-69
2023/04/18 06:22:00;;;;;;;9.10;4.15;;;8.80;99.90;;;;;;4973754;28;20046;-72
2023/04/18 06:24:26;;;;;;;9.77;3.92;;;8.70;99.90;;;;;;4971477;28;20055;-69
2023/04/18 06:26:53;;;;;;;8.52;4.25;;;8.80;99.90;;;;;;4973704;28;20035;-67
2023/04/18 06:29:19;;;;;;;14.18;4.07;;;8.80;99.90;;;;;;4970676;28;20034;-67
2023/04/18 06:31:47;;;;;;;10.38;4.00;;;8.80;99.90;;;;;;4973021;28;20035;-69
2023/04/18 06:34:13;;;;;;;10.80;5.25;;;8.80;99.90;;;;;;4965825;28;20035;-68
2023/04/18 06:36:38;;;;;;;12.43;4.47;;;8.80;99.90;;;;;;4970698;28;20042;-69
2023/04/18 06:39:04;;;;;;;8.63;4.28;;;8.90;99.90;;;;;;4971215;28;20042;-69
2023/04/18 06:41:30;;;;;;;8.32;4.22;;;9.00;99.90;;;;;;4972627;28;20110;-69
2023/04/18 06:43:56;;;;;;;12.30;4.40;;;9.10;99.90;;;;;;4972200;28;20538;-69
2023/04/18 06:46:22;;;;;;;8.35;4.10;;;9.20;99.90;;;;;;4974061;28;20491;-68
2023/04/18 06:48:48;;;;;;;9.13;4.40;;;9.20;99.90;;;;;;4970945;28;20041;-68
2023/04/18 06:51:14;;;;;;;12.77;5.50;;;9.10;99.90;;;;;;4972656;28;20081;-68
2023/04/18 06:53:40;;;;;;;8.43;3.88;;;9.10;99.90;;;;;;4970987;28;20034;-69
2023/04/18 06:56:06;;;;;;;7.43;4.18;;;9.20;99.90;;;;;;4973668;28;20031;-69
2023/04/18 06:58:32;;;;;;;10.30;3.92;;;9.20;99.90;;;;;;4970804;28;20046;-69
2023/04/18 07:00:57;;;;;;;13.82;5.30;;;9.20;99.90;;;;;;4973725;28;20093;-68
2023/04/18 07:03:23;;;;;;;10.93;4.97;;;9.10;99.90;;;;;;4973218;28;20058;-69
2023/04/18 07:05:49;;;;;;;8.57;4.35;;;9.20;99.90;;;;;;4973777;28;20038;-69
2023/04/18 07:08:15;;;;;;;14.63;4.43;;;9.30;99.90;;;;;;4970600;28;20075;-69
2023/04/18 07:10:41;;;;;;;8.70;4.70;;;9.30;99.90;;;;;;4973409;28;20502;-69
2023/04/18 07:13:07;;;;;;;8.95;3.65;;;9.40;99.90;;;;;;4970521;28;20057;-69
2023/04/18 07:15:34;;;;;;;12.73;4.20;;;9.60;99.90;;;;;;4971044;28;20026;-69
2023/04/18 07:18:00;;;;;;;7.13;4.15;;;9.90;99.90;;;;;;4969516;28;20043;-69
2023/04/18 07:20:26;;;;;;;9.20;4.35;;;10.00;99.90;;;;;;4971927;28;20702;-69
2023/04/18 07:22:52;;;;;;;10.27;4.53;;;9.70;99.90;;;;;;4970349;28;20028;-68
2023/04/18 07:25:18;;;;;;;7.72;3.88;;;9.60;99.90;;;;;;4972930;28;20022;-68
2023/04/18 07:27:43;;;;;;;7.82;3.95;;;9.70;99.90;;;;;;4970168;28;20083;-68
2023/04/18 07:30:10;;;;;;;9.95;4.43;;;9.70;99.90;;;;;;4972840;28;20115;-69
2023/04/18 07:32:35;;;;;;;6.63;3.47;;;9.70;99.90;;;;;;4967738;28;20033;-69
2023/04/18 07:35:02;;;;;;;7.15;3.75;;;10.00;99.90;;;;;;4967011;28;20485;-69
2023/04/18 07:37:28;;;;;;;9.23;4.28;;;10.20;99.90;;;;;;4970105;28;20037;-68
2023/04/18 07:39:53;;;;;;;7.63;4.07;;;10.00;99.90;;;;;;4971020;28;20051;-68
2023/04/18 07:42:19;;;;;;;10.73;3.30;;;10.20;99.90;;;;;;4967628;28;20107;-68
2023/04/18 07:44:45;;;;;;;7.63;3.10;;;10.10;99.90;;;;;;4956704;28;20034;-69
2023/04/18 07:47:11;;;;;;;9.25;3.90;;;10.30;99.90;;;;;;4963495;28;20042;-69
2023/04/18 07:49:38;;;;;;;12.68;5.10;;;10.60;99.90;;;;;;4965077;28;20391;-69
2023/04/18 07:52:04;;;;;;;14.30;4.70;;;10.50;99.90;;;;;;4980044;28;20038;-69
2023/04/18 07:54:30;;;;;;;23.00;4.80;;;10.90;99.90;;;;;;4969892;28;20030;-69
2023/04/18 07:56:55;;;;;;;8.52;3.90;;;11.00;99.90;;;;;;4971287;28;20057;-68
2023/04/18 07:59:21;;;;;;;10.30;4.40;;;11.00;99.90;;;;;;4970895;28;20030;-68
2023/04/18 08:01:47;;;;;;;17.42;4.68;;;10.60;99.90;;;;;;4985368;28;20380;-69
2023/04/18 08:04:13;;;;;;;10.70;4.40;;;10.60;99.90;;;;;;4972229;28;20034;-68
2023/04/18 08:06:39;;;;;;;9.52;4.50;;;10.60;99.90;;;;;;4969144;28;20029;-69
2023/04/18 08:09:05;;;;;;;10.32;4.05;;;10.60;99.90;;;;;;4971181;28;20102;-69
2023/04/18 08:11:33;;;;;;;9.15;5.00;;;10.70;99.90;;;;;;4966364;28;20153;-69
2023/04/18 08:13:59;;;;;;;10.05;5.68;;;10.60;99.90;;;;;;4968323;28;20058;-69
2023/04/18 08:16:25;;;;;;;9.05;4.13;;;10.90;99.90;;;;;;4965550;28;20031;-71
2023/04/18 08:18:51;;;;;;;7.43;3.97;;;10.70;99.90;;;;;;4971311;28;20023;-70
2023/04/18 08:21:18;;;;;;;10.50;4.15;;;10.50;99.90;;;;;;4962682;28;20035;-70
2023/04/18 08:23:45;;;;;;;9.73;4.57;;;10.40;99.90;;;;;;4969237;28;20031;-71
2023/04/18 08:26:10;;;;;;;14.43;3.63;;;10.70;99.90;;;;;;4968360;28;20114;-71
2023/04/18 08:28:36;;;;;;;16.08;4.22;;;10.90;99.90;;;;;;4954678;28;20550;-71
2023/04/18 08:31:02;;;;;;;7.65;3.60;;;10.80;99.90;;;;;;4968128;28;20039;-71
2023/04/18 08:33:28;;;;;;;10.50;3.55;;;10.70;99.90;;;;;;4972072;28;20467;-71
2023/04/18 08:35:54;;;;;;;8.25;3.17;;;10.70;99.90;;;;;;4969730;28;20042;-72
2023/04/18 08:38:20;;;;;;;8.73;3.90;;;10.90;99.90;;;;;;4972092;28;20467;-71
2023/04/18 08:40:46;;;;;;;11.30;4.15;;;10.90;99.90;;;;;;4967410;28;20121;-72
2023/04/18 08:43:13;;;;;;;8.68;3.85;;;11.10;99.90;;;;;;4970867;28;20022;-70
2023/04/18 08:45:43;;;;;;;7.70;3.25;;;10.80;99.90;;;;;;4967578;28;20042;-72
2023/04/18 08:48:15;;;;;;;6.45;3.35;;;10.70;99.90;;;;;;4965109;28;20073;-72
2023/04/18 08:50:42;;;;;;;6.93;3.45;;;10.70;99.90;;;;;;4970924;28;20065;-72
2023/04/18 08:53:08;;;;;;;11.55;3.92;;;10.60;99.90;;;;;;4970645;28;20038;-72
2023/04/18 08:55:34;;;;;;;7.95;3.85;;;10.80;99.90;;;;;;4970283;28;20035;-72
2023/04/18 08:58:01;;;;;;;9.57;4.22;;;10.80;99.90;;;;;;4970489;28;20027;-72
2023/04/18 09:00:28;;;;;;;17.25;4.32;;;10.90;99.90;;;;;;4950370;28;20081;-72
2023/04/18 09:02:55;;;;;;;11.68;3.90;;;11.10;99.90;;;;;;4970727;28;20038;-72
2023/04/18 09:05:24;;;;;;;9.18;4.05;;;11.40;99.90;;;;;;4969483;28;20068;-72
2023/04/18 09:07:52;;;;;;;13.20;4.22;;;11.70;99.90;;;;;;4970779;28;20035;-72
2023/04/18 09:10:33;;;;;;;10.05;3.67;;;11.70;99.90;;;;;;4965698;28;20035;-72
2023/04/18 09:13:02;;;;;;;10.68;3.55;;;12.10;99.90;;;;;;4978301;28;20031;-72
2023/04/18 09:15:29;;;;;;;9.75;4.60;;;11.90;99.90;;;;;;4978525;23;20483;-68
2023/04/18 09:17:58;;;;;;;11.95;4.22;;;12.10;99.90;;;;;;4942100;28;20124;-71
2023/04/18 09:20:39;;;;;;;11.65;4.07;;;12.10;99.90;;;;;;4933652;29;20038;-71
2023/04/18 09:23:13;;;;;;;;;;;12.20;99.90;;;;;;4952144;29;20038;-72
2023/04/18 09:25:47;;;;;;;6.65;3.60;;;12.40;99.90;;;;;;4953184;28;19997;-73
2023/04/18 09:28:28;;;;;;;8.05;3.88;;;12.80;99.90;;;;;;4964232;28;20045;-73
2023/04/18 09:30:57;;;;;;;10.25;4.55;;;13.10;99.90;;;;;;4953797;28;20035;-69
2023/04/18 09:33:31;;;;;;;14.27;4.22;;;13.10;99.90;;;;;;4969867;28;20035;-69
2023/04/18 09:36:17;;;;;;;8.75;3.35;;;12.70;99.90;;;;;;4967380;28;20523;-69
2023/04/18 09:38:43;;;;;;;8.50;3.65;;;12.50;99.90;;;;;;4970336;28;20087;-71
2023/04/18 09:41:11;;;;;;;7.53;3.78;;;12.50;99.90;;;;;;4970992;28;20039;-69
2023/04/18 09:43:37;;;;;;;10.27;3.35;;;12.40;99.90;;;;;;4974821;28;20067;-69
2023/04/18 09:46:03;;;;;;;7.93;3.70;;;12.80;99.90;;;;;;4972901;28;20037;-68
2023/04/18 09:48:29;;;;;;;8.15;4.18;;;12.80;99.90;;;;;;4973872;28;20483;-70
2023/04/18 09:50:57;;;;;;;7.68;3.97;;;12.70;99.90;;;;;;4971013;28;20039;-69
2023/04/18 09:53:24;;;;;;;8.02;3.53;;;12.50;99.90;;;;;;4973692;28;20022;-69
2023/04/18 09:55:52;;;;;;;11.48;3.35;;;12.40;99.90;;;;;;4970876;28;20042;-69
2023/04/18 09:58:21;;;;;;;9.43;4.25;;;12.40;99.90;;;;;;4973851;28;20031;-69
2023/04/18 10:00:50;;;;;;;9.77;3.58;;;12.60;99.90;;;;;;4971777;28;20553;-68
2023/04/18 10:03:18;;;;;;;7.82;3.78;;;12.70;99.90;;;;;;4974527;28;20026;-68
2023/04/18 10:05:46;;;;;;;10.52;3.97;;;12.80;99.90;;;;;;4970530;28;20035;-68
2023/04/18 10:08:15;;;;;;;10.75;4.18;;;12.90;99.90;;;;;;4974788;28;20023;-68
2023/04/18 10:10:42;;;;;;;9.85;3.60;;;12.90;99.90;;;;;;4972133;28;20039;-69
2023/04/18 10:13:10;;;;;;;5.95;2.95;;;13.20;99.90;;;;;;4966615;28;20042;-69
2023/04/18 10:15:37;;;;;;;7.57;2.97;;;13.70;99.90;;;;;;4976507;28;20434;-70
2023/04/18 10:18:13;;;;;;;6.65;2.90;;;13.90;99.90;;;;;;4986064;28;20498;-70
2023/04/18 10:20:40;;;;;;;8.85;3.55;;;14.50;99.90;;;;;;4974130;28;20042;-69
2023/04/18 10:23:47;;;;;;;8.35;3.33;;;14.40;99.90;;;;;;4974230;28;20469;-69
2023/04/18 10:26:13;;;;;;;10.57;3.30;;;14.70;99.90;;;;;;4971918;28;20057;-68
2023/04/18 10:28:51;;;;;;;7.00;2.97;;;14.80;99.90;;;;;;4974183;28;20479;-68
2023/04/18 10:31:17;;;;;;;6.63;3.33;;;14.80;99.90;;;;;;4971076;28;20034;-68
2023/04/18 10:33:56;;;;;;;9.10;3.70;;;15.10;99.90;;;;;;4973853;28;20026;-68
2023/04/18 10:36:23;;;;;;;6.20;3.25;;;15.30;99.90;;;;;;4972185;28;20031;-69
2023/04/18 10:38:54;;;;;;;10.02;4.18;;;15.10;99.90;;;;;;4974109;28;20038;-68
2023/04/18 10:41:27;;;;;;;6.35;2.60;;;15.40;99.90;;;;;;4971674;28;20038;-68
2023/04/18 10:44:11;;;;;;;4.75;2.75;;;15.20;99.90;;;;;;4972951;28;20027;-68
2023/04/18 10:47:07;;;;;;;5.63;2.47;;;15.30;99.90;;;;;;4971026;28;20041;-69
2023/04/18 10:49:35;;;;;;;6.88;2.95;;;15.70;99.90;;;;;;4965597;28;20534;-68
2023/04/18 10:52:04;;;;;;;8.98;3.28;;;15.90;99.90;;;;;;4971117;28;20038;-68
2023/04/18 10:55:29;;;;;;;8.32;3.22;;;15.80;99.90;;;;;;4956965;28;20042;-69
2023/04/18 10:57:57;;;;;;;9.45;3.83;;;16.00;99.90;;;;;;4969739;28;20050;-68
2023/04/18 11:00:23;;;;;;;7.75;3.40;;;15.50;99.90;;;;;;4953336;28;20042;-69
2023/04/18 11:02:58;;;;;;;4.03;2.40;;;16.00;99.90;;;;;;4952969;28;20043;-68
2023/04/18 11:05:28;;;;;;;6.22;2.50;;;16.00;99.90;;;;;;4954833;28;20498;-68
2023/04/18 11:07:54;;;;;;;5.75;3.17;;;16.70;99.90;;;;;;4970832;28;20034;-69
2023/04/18 11:10:25;;;;;;;4.97;2.80;;;17.50;99.90;;;;;;4954433;28;20077;-69
2023/04/18 11:12:53;;;;;;;4.45;2.40;;;16.80;99.90;;;;;;4955100;28;20391;-69
2023/04/18 11:15:24;;;;;;;7.80;2.80;;;17.00;99.90;;;;;;4954547;28;20232;-69
2023/04/18 11:18:03;;;;;;;11.00;2.63;;;17.10;99.90;;;;;;4970871;28;20041;-69
2023/04/18 11:20:37;;;;;;;6.30;2.83;;;17.80;99.80;;;;;;4966866;28;20103;-68
2023/04/18 11:23:13;;;;;;;5.22;2.53;;;18.00;98.70;;;;;;4971001;28;20075;-68
2023/04/18 11:25:39;;;;;;;4.93;2.38;;;18.20;97.90;;;;;;4953475;28;20035;-69
2023/04/18 11:28:05;;;;;;;5.82;2.70;;;18.30;97.90;;;;;;4971170;28;20399;-69
2023/04/18 11:30:40;;;;;;;5.57;2.28;;;17.80;97.70;;;;;;4969350;28;20422;-70
2023/04/18 11:33:11;;;;;;;4.25;1.80;;;17.80;98.10;;;;;;4968475;28;20101;-69
2023/04/18 11:35:42;;;;;;;5.25;2.17;;;17.40;98.50;;;;;;4969186;28;20030;-69
2023/04/18 11:38:10;;;;;;;5.85;2.80;;;17.70;98.50;;;;;;4936947;29;20066;-69
2023/04/18 11:40:37;;;;;;;5.70;2.25;;;17.10;98.90;;;;;;4951728;28;20393;-68
2023/04/18 11:43:05;;;;;;;12.05;2.70;;;17.00;99.00;;;;;;4971503;28;20023;-69
2023/04/18 11:45:31;;;;;;;3.95;2.13;;;16.70;99.00;;;;;;4964727;28;20546;-70
2023/04/18 11:47:59;;;;;;;12.85;2.50;;;16.30;99.60;;;;;;4970337;28;20035;-69
2023/04/18 11:50:26;;;;;;;3.63;1.63;;;16.40;99.30;;;;;;4969514;28;20026;-69
2023/04/18 11:52:53;;;;;;;5.30;2.33;;;16.30;99.80;;;;;;4955649;28;20023;-69
2023/04/18 11:55:25;;;;;;;3.33;2.17;;;16.10;99.90;;;;;;4968785;28;20038;-68
2023/04/18 11:57:59;;;;;;;4.03;2.15;;;16.00;99.90;;;;;;4968057;28;20031;-68
2023/04/18 12:00:37;;;;;;;6.85;2.40;;;16.10;99.90;;;;;;4966854;28;20026;-68
2023/04/18 12:03:14;;;;;;;5.28;2.38;;;15.80;99.90;;;;;;4971966;28;20023;-69
2023/04/18 12:05:43;;;;;;;6.25;2.25;;;16.00;99.90;;;;;;4964732;28;20427;-69
2023/04/18 12:08:18;;;;;;;4.28;2.35;;;16.50;99.90;;;;;;4971293;28;20035;-69
2023/04/18 12:10:49;;;;;;;3.60;1.98;;;16.20;99.90;;;;;;4967654;28;20551;-69
2023/04/18 12:13:16;;;;;;;3.53;1.85;;;15.90;99.90;;;;;;4970676;28;20037;-69
2023/04/18 12:15:45;;;;;;;6.05;2.00;;;15.90;99.90;;;;;;4970921;28;20486;-70
2023/04/18 12:18:14;;;;;;;4.05;2.00;;;15.90;99.90;;;;;;4972745;28;20031;-70
2023/04/18 12:20:48;;;;;;;3.38;1.50;;;15.80;99.90;;;;;;4968042;28;20491;-68
2023/04/18 12:23:35;;;;;;;6.85;1.52;;;16.00;99.90;;;;;;4972392;28;20050;-68
2023/04/18 12:26:13;;;;;;;4.15;1.55;;;15.60;99.90;;;;;;4971301;28;20035;-68
2023/04/18 12:28:44;;;;;;;4.13;2.20;;;15.50;99.90;;;;;;4967669;28;20039;-68
2023/04/18 12:31:10;;;;;;;2.25;1.58;;;15.40;99.90;;;;;;4963389;28;20026;-69
2023/04/18 12:33:36;;;;;;;5.20;2.17;;;15.30;99.90;;;;;;4969451;28;20494;-68
2023/04/18 12:36:04;;;;;;;6.18;1.80;;;15.50;99.90;;;;;;4971957;28;20037;-68
2023/04/18 12:38:29;;;;;;;5.32;1.85;;;15.00;99.90;;;;;;4970420;28;20125;-68
2023/04/18 12:40:55;;;;;;;4.75;1.65;;;15.00;99.90;;;;;;4969866;28;20210;-68
2023/04/18 12:43:21;;;;;;;2.63;1.27;;;15.20;99.90;;;;;;4971372;28;20035;-68
2023/04/18 12:45:49;;;;;;;3.42;2.03;;;15.30;99.90;;;;;;4968947;28;20050;-68
2023/04/18 12:48:15;;;;;;;3.20;1.85;;;15.10;99.90;;;;;;4970568;28;20502;-69
2023/04/18 12:50:40;;;;;;;3.90;2.15;;;15.20;99.90;;;;;;4968494;28;20027;-68
2023/04/18 12:53:06;;;;;;;3.20;2.25;;;15.40;99.90;;;;;;4971521;28;20030;-69